Time;durP1;ratioP1;P1;durP2;ratioP2;P2;SDS_P1;SDS_P2;PMS_P1;PMS_P2;Temp;Humidity;BMP_temperature;BMP_pressure;BME280_temperature;BME280_humidity;BME280_pressure;Samples;Min_cycle;Max_cycle;Signal;HPM_P1;HPM_P2
2022/11/16 00:00:59;;;;;;;1.60;1.10;;;12.00;98.20;;;;;;5000405;28;20461;-76
2022/11/16 00:03:26;;;;;;;1.60;1.20;;;12.00;98.20;;;;;;4989304;28;20523;-76
2022/11/16 00:05:56;;;;;;;1.60;1.10;;;12.00;98.20;;;;;;4981161;28;20485;-75
2022/11/16 00:08:23;;;;;;;1.60;1.10;;;12.00;98.20;;;;;;4989990;28;20501;-77
2022/11/16 00:10:50;;;;;;;1.57;1.10;;;12.00;98.20;;;;;;5000998;28;20900;-76
2022/11/16 00:13:18;;;;;;;1.60;1.10;;;12.00;98.20;;;;;;5023557;28;20480;-76
2022/11/16 00:15:54;;;;;;;1.57;1.10;;;12.00;98.20;;;;;;5010481;28;20460;-77
2022/11/16 00:18:21;;;;;;;2.47;2.23;;;12.00;98.20;;;;;;4963615;28;20513;-75
2022/11/16 00:20:48;;;;;;;1.60;1.10;;;12.00;98.20;;;;;;5004856;28;20464;-75
2022/11/16 00:23:15;;;;;;;1.53;1.10;;;12.00;98.20;;;;;;5007299;28;20484;-76
2022/11/16 00:25:42;;;;;;;1.60;1.10;;;12.00;98.20;;;;;;5010876;28;20484;-76
2022/11/16 00:28:09;;;;;;;1.60;1.00;;;12.00;98.20;;;;;;4997179;28;20485;-75
2022/11/16 00:30:37;;;;;;;1.60;1.00;;;12.00;98.20;;;;;;5009263;28;20483;-76
2022/11/16 00:33:05;;;;;;;1.60;1.10;;;12.00;98.20;;;;;;4997429;28;20488;-77
2022/11/16 00:35:32;;;;;;;1.57;1.10;;;12.00;98.20;;;;;;5010556;28;20463;-76
2022/11/16 00:37:59;;;;;;;1.60;1.10;;;12.00;98.20;;;;;;5005858;28;20487;-76
2022/11/16 00:40:25;;;;;;;1.57;1.10;;;12.00;98.20;;;;;;5009744;28;20464;-76
2022/11/16 00:42:52;;;;;;;2.57;2.37;;;12.00;98.20;;;;;;5013127;28;20497;-77
2022/11/16 00:45:19;;;;;;;1.57;1.00;;;12.00;98.20;;;;;;5010035;28;20488;-76
2022/11/16 00:47:47;;;;;;;1.60;1.10;;;12.00;98.20;;;;;;4998639;28;20484;-76
2022/11/16 00:50:13;;;;;;;1.60;1.07;;;12.00;98.20;;;;;;5009680;28;20460;-76
2022/11/16 00:52:40;;;;;;;1.60;1.00;;;12.00;98.20;;;;;;4998855;28;20499;-76
2022/11/16 00:55:08;;;;;;;1.60;1.10;;;12.00;98.20;;;;;;5012293;28;20486;-79
2022/11/16 00:57:35;;;;;;;1.60;1.00;;;12.00;98.20;;;;;;5001169;28;20488;-75
2022/11/16 01:00:01;;;;;;;1.60;1.10;;;12.00;98.20;;;;;;5009829;28;20888;-77
2022/11/16 01:02:28;;;;;;;1.60;1.00;;;12.00;98.20;;;;;;5001015;28;20495;-77
2022/11/16 01:04:56;;;;;;;1.60;1.00;;;12.00;98.20;;;;;;4994713;28;20492;-78
2022/11/16 01:07:23;;;;;;;1.60;1.03;;;12.00;98.20;;;;;;5006527;28;20487;-77
2022/11/16 01:09:50;;;;;;;1.57;0.97;;;12.00;98.20;;;;;;5014711;28;20962;-79
2022/11/16 01:12:16;;;;;;;1.60;1.10;;;12.00;98.20;;;;;;5011970;28;20911;-78
2022/11/16 01:14:45;;;;;;;1.53;1.00;;;12.00;98.20;;;;;;5016680;28;20468;-78
2022/11/16 01:17:12;;;;;;;1.60;1.00;;;12.00;98.20;;;;;;5001836;28;20608;-79
2022/11/16 01:19:39;;;;;;;1.60;1.07;;;12.10;98.20;;;;;;5008573;28;20460;-75
2022/11/16 01:22:07;;;;;;;1.57;1.00;;;12.00;98.20;;;;;;5011419;28;20487;-77
2022/11/16 01:24:34;;;;;;;1.57;1.00;;;12.00;98.20;;;;;;5017789;28;20982;-74
2022/11/16 01:27:00;;;;;;;1.60;1.20;;;12.00;98.20;;;;;;5001285;28;20554;-77
2022/11/16 01:29:30;;;;;;;1.53;1.00;;;12.00;98.20;;;;;;5010164;28;21081;-76
2022/11/16 01:31:57;;;;;;;1.50;1.00;;;12.00;98.20;;;;;;5002095;28;20929;-77
2022/11/16 01:34:24;;;;;;;1.60;1.10;;;12.00;98.20;;;;;;5018698;28;20453;-81
2022/11/16 01:36:51;;;;;;;3.60;2.60;;;12.00;98.20;;;;;;5007610;28;20507;-79
2022/11/16 01:39:19;;;;;;;1.60;1.10;;;12.10;98.20;;;;;;5018145;28;20460;-77
2022/11/16 01:41:47;;;;;;;1.57;1.00;;;12.10;98.20;;;;;;5006626;28;21240;-78
2022/11/16 01:44:51;;;;;;;1.57;1.00;;;12.00;98.20;;;;;;5017857;28;20492;-79
2022/11/16 01:47:18;;;;;;;1.60;1.10;;;12.10;98.20;;;;;;5000689;28;20499;-78
2022/11/16 01:49:49;;;;;;;1.80;1.50;;;12.10;98.20;;;;;;5007173;28;20743;-78
2022/11/16 01:52:18;;;;;;;1.57;1.00;;;12.10;98.20;;;;;;5000694;28;20488;-76
2022/11/16 01:54:48;;;;;;;1.53;1.00;;;12.10;98.20;;;;;;5010677;28;20841;-77
2022/11/16 01:57:22;;;;;;;1.60;1.00;;;12.10;98.20;;;;;;5001194;28;20483;-76
2022/11/16 01:59:52;;;;;;;1.57;1.00;;;12.10;98.20;;;;;;5010887;28;20900;-75
2022/11/16 02:02:19;;;;;;;1.60;1.10;;;12.10;98.20;;;;;;4999983;28;20494;-77
2022/11/16 02:04:47;;;;;;;1.60;1.20;;;12.10;98.20;;;;;;5011418;28;20484;-78
2022/11/16 02:07:20;;;;;;;1.60;1.20;;;12.10;98.20;;;;;;5001560;28;20483;-75
2022/11/16 02:10:04;;;;;;;1.57;1.00;;;12.10;98.20;;;;;;5007318;28;20468;-77
2022/11/16 02:13:03;;;;;;;1.60;1.10;;;12.10;98.20;;;;;;4999703;28;20492;-76
2022/11/16 02:15:36;;;;;;;1.60;1.00;;;12.10;98.20;;;;;;5012583;28;20471;-81
2022/11/16 02:18:15;;;;;;;1.57;1.00;;;12.10;98.20;;;;;;4999908;28;20484;-79
2022/11/16 02:20:59;;;;;;;1.60;1.10;;;12.00;98.20;;;;;;5011768;28;20517;-78
2022/11/16 02:24:11;;;;;;;1.57;1.10;;;12.00;98.20;;;;;;4976620;28;20490;-77
2022/11/16 02:26:56;;;;;;;1.53;1.00;;;12.10;98.20;;;;;;5000795;28;20570;-79
2022/11/16 02:29:29;;;;;;;1.60;1.10;;;12.10;98.20;;;;;;5010080;28;20459;-78
2022/11/16 02:32:03;;;;;;;1.60;1.10;;;12.10;98.20;;;;;;5000775;28;20484;-77
2022/11/16 02:34:33;;;;;;;1.57;1.00;;;12.10;98.20;;;;;;5008848;28;20856;-79
2022/11/16 02:37:04;;;;;;;1.57;1.07;;;12.10;98.20;;;;;;5003579;28;20539;-76
2022/11/16 02:39:33;;;;;;;1.60;1.10;;;12.10;98.20;;;;;;5020392;28;20547;-78
2022/11/16 02:42:03;;;;;;;1.57;1.00;;;12.10;98.20;;;;;;5000542;28;20492;-76
2022/11/16 02:44:34;;;;;;;1.60;1.10;;;12.10;98.20;;;;;;5005183;28;20452;-76
2022/11/16 02:47:04;;;;;;;1.60;1.10;;;12.10;98.20;;;;;;4992615;28;20946;-78
2022/11/16 02:49:35;;;;;;;1.57;1.00;;;12.10;98.20;;;;;;5023329;28;20852;-78
2022/11/16 02:52:03;;;;;;;1.60;1.10;;;12.10;98.20;;;;;;5004248;28;20641;-78
2022/11/16 02:54:29;;;;;;;1.53;1.00;;;12.10;98.20;;;;;;5012442;28;20833;-76
2022/11/16 02:57:12;;;;;;;1.60;1.00;;;12.10;98.20;;;;;;5007316;28;20476;-79
2022/11/16 02:59:44;;;;;;;1.60;1.00;;;12.10;98.20;;;;;;5006465;28;20456;-79
2022/11/16 03:02:19;;;;;;;1.60;1.00;;;12.10;98.20;;;;;;4996801;28;20488;-78
2022/11/16 03:04:50;;;;;;;1.60;1.03;;;12.10;98.20;;;;;;5008084;28;20455;-77
2022/11/16 03:07:22;;;;;;;1.60;1.20;;;12.00;98.20;;;;;;5002187;28;21007;-77
2022/11/16 03:09:51;;;;;;;1.60;1.10;;;12.00;98.20;;;;;;5011718;28;20490;-78
2022/11/16 03:12:22;;;;;;;1.57;1.03;;;12.00;98.20;;;;;;5000689;28;21049;-78
2022/11/16 03:14:55;;;;;;;1.60;1.00;;;12.00;98.20;;;;;;5013794;28;20470;-79
2022/11/16 03:17:27;;;;;;;1.60;1.00;;;12.00;98.20;;;;;;5001475;28;20567;-78
2022/11/16 03:19:58;;;;;;;1.60;1.10;;;12.00;98.20;;;;;;5012881;28;20962;-76
2022/11/16 03:22:30;;;;;;;1.57;1.00;;;12.00;98.20;;;;;;4999539;28;21187;-78
2022/11/16 03:24:57;;;;;;;1.60;1.00;;;12.00;98.20;;;;;;5013627;28;20858;-77
2022/11/16 03:30:00;;;;;;;1.60;1.00;;;12.00;98.20;;;;;;5006332;28;20721;-82
2022/11/16 03:32:33;;;;;;;1.60;1.00;;;12.00;98.20;;;;;;5000163;28;20490;-78
2022/11/16 03:35:04;;;;;;;1.60;1.07;;;12.00;98.20;;;;;;5015442;28;20456;-79
2022/11/16 03:37:31;;;;;;;1.60;1.00;;;12.00;98.20;;;;;;4996895;28;20786;-77
2022/11/16 03:40:01;;;;;;;1.60;1.10;;;12.10;98.20;;;;;;5014114;28;20456;-77
2022/11/16 03:42:28;;;;;;;1.57;1.00;;;12.00;98.20;;;;;;4989352;28;20487;-78
2022/11/16 03:44:56;;;;;;;1.60;1.07;;;12.10;98.20;;;;;;4994265;28;20465;-76
2022/11/16 03:47:23;;;;;;;1.60;1.00;;;12.10;98.20;;;;;;4983866;28;20484;-78
2022/11/16 03:49:50;;;;;;;1.60;1.10;;;12.10;98.20;;;;;;5015262;28;20471;-77
2022/11/16 03:52:18;;;;;;;1.60;1.07;;;12.10;98.20;;;;;;4990728;28;20485;-77
2022/11/16 03:54:45;;;;;;;1.60;1.07;;;12.10;98.20;;;;;;4998532;28;20460;-78
2022/11/16 03:57:16;;;;;;;1.57;1.00;;;12.10;98.20;;;;;;5001196;28;20487;-78
2022/11/16 03:59:44;;;;;;;1.60;1.00;;;12.10;98.20;;;;;;5004645;28;20504;-78
2022/11/16 04:02:12;;;;;;;1.60;1.00;;;12.10;98.20;;;;;;4992158;28;20492;-76
2022/11/16 04:24:13;;;;;;;1.60;1.00;;;12.00;98.20;;;;;;4992518;28;20467;-73
2022/11/16 04:29:26;;;;;;;1.60;1.10;;;12.00;98.20;;;;;;5007238;28;20451;-76
2022/11/16 04:40:08;;;;;;;1.60;1.00;;;12.00;98.20;;;;;;5009707;28;20516;-78
2022/11/16 04:42:35;;;;;;;1.60;1.00;;;11.90;98.20;;;;;;4985755;28;20489;-77
2022/11/16 04:47:48;;;;;;;1.60;0.90;;;11.90;98.20;;;;;;4989471;28;20651;-76
2022/11/16 04:50:17;;;;;;;1.53;1.00;;;11.90;98.20;;;;;;4994330;28;20644;-78
2022/11/16 04:52:44;;;;;;;1.57;1.00;;;11.90;98.20;;;;;;4999014;28;20571;-77
2022/11/16 04:55:11;;;;;;;1.60;1.10;;;11.90;98.20;;;;;;5004506;28;21958;-74
2022/11/16 04:57:38;;;;;;;1.70;1.30;;;11.90;98.20;;;;;;4997631;28;20488;-75
2022/11/16 05:00:06;;;;;;;1.60;1.00;;;11.90;98.20;;;;;;5004863;28;20539;-77
2022/11/16 05:02:33;;;;;;;1.60;1.07;;;11.80;98.20;;;;;;5009360;28;20478;-76
2022/11/16 05:05:00;;;;;;;1.60;1.10;;;11.90;98.20;;;;;;5008829;28;20468;-77
2022/11/16 05:07:28;;;;;;;1.60;1.00;;;11.90;98.20;;;;;;4995050;28;20578;-75
2022/11/16 05:09:55;;;;;;;1.60;1.10;;;11.90;98.20;;;;;;5001766;28;20476;-78
2022/11/16 05:12:24;;;;;;;1.60;1.00;;;11.90;98.20;;;;;;4998510;28;20594;-78
2022/11/16 05:14:51;;;;;;;1.60;1.00;;;11.90;98.20;;;;;;5007768;28;20463;-75
2022/11/16 05:17:19;;;;;;;1.60;1.00;;;11.80;98.20;;;;;;4991007;28;21000;-75
2022/11/16 05:22:31;;;;;;;1.60;1.00;;;11.80;98.20;;;;;;4993225;28;20832;-74
2022/11/16 05:24:58;;;;;;;1.60;1.10;;;11.80;98.20;;;;;;5001406;28;20464;-77
2022/11/16 05:27:26;;;;;;;1.60;1.00;;;11.80;98.20;;;;;;4995805;28;20479;-77
2022/11/16 05:29:54;;;;;;;1.60;1.00;;;11.80;98.20;;;;;;5006879;28;20469;-77
2022/11/16 05:32:22;;;;;;;1.60;1.07;;;11.70;98.20;;;;;;4994646;28;20476;-76
2022/11/16 05:34:49;;;;;;;1.60;1.10;;;11.70;98.20;;;;;;5005885;28;20575;-76
2022/11/16 05:37:17;;;;;;;1.60;1.10;;;11.70;98.20;;;;;;4995740;28;20488;-72
2022/11/16 05:39:45;;;;;;;1.53;1.00;;;11.70;98.20;;;;;;5007042;28;20750;-75
2022/11/16 05:42:12;;;;;;;2.80;2.00;;;11.70;98.20;;;;;;4994174;28;20484;-73
2022/11/16 05:44:38;;;;;;;1.60;1.10;;;11.70;98.20;;;;;;5006580;28;20456;-76
2022/11/16 05:47:05;;;;;;;1.60;1.10;;;11.70;98.20;;;;;;4992554;28;21048;-74
2022/11/16 05:49:32;;;;;;;1.60;1.10;;;11.70;98.20;;;;;;5006757;28;20464;-75
2022/11/16 05:51:59;;;;;;;1.60;1.00;;;11.70;98.20;;;;;;4991542;28;20485;-76
2022/11/16 05:54:26;;;;;;;1.60;1.10;;;11.70;98.20;;;;;;5004949;28;20840;-76
2022/11/16 05:56:54;;;;;;;1.60;1.10;;;11.60;98.20;;;;;;4988862;28;20554;-76
2022/11/16 05:59:23;;;;;;;1.60;1.10;;;11.60;98.20;;;;;;5006721;28;20460;-75
2022/11/16 06:01:50;;;;;;;1.60;1.10;;;11.50;98.20;;;;;;4997405;28;20961;-75
2022/11/16 06:04:17;;;;;;;1.60;1.10;;;11.50;98.20;;;;;;5003217;28;21283;-77
2022/11/16 06:06:44;;;;;;;1.60;1.00;;;11.50;98.20;;;;;;4991351;28;20487;-75
2022/11/16 06:09:12;;;;;;;1.60;1.10;;;11.40;98.20;;;;;;5005799;28;20483;-74
2022/11/16 06:11:39;;;;;;;1.60;1.00;;;11.30;98.20;;;;;;4992876;28;20503;-75
2022/11/16 06:14:08;;;;;;;1.60;1.00;;;11.30;98.20;;;;;;5003830;28;20551;-74
2022/11/16 06:16:34;;;;;;;1.60;1.10;;;11.20;98.20;;;;;;4995277;28;20564;-76
2022/11/16 06:19:01;;;;;;;1.60;1.10;;;11.20;98.20;;;;;;5004649;28;20468;-76
2022/11/16 06:21:28;;;;;;;1.60;1.10;;;11.10;98.20;;;;;;4997077;28;20495;-75
2022/11/16 06:23:55;;;;;;;1.60;1.10;;;11.10;98.20;;;;;;5008588;28;20471;-75
2022/11/16 06:26:22;;;;;;;1.60;1.20;;;11.00;98.20;;;;;;4994891;28;20482;-76
2022/11/16 06:28:49;;;;;;;1.60;1.10;;;11.00;98.20;;;;;;4999560;28;20924;-77
2022/11/16 06:31:17;;;;;;;1.70;1.30;;;10.90;98.20;;;;;;4993661;28;20528;-76
2022/11/16 06:33:44;;;;;;;1.60;1.10;;;10.90;98.20;;;;;;4993366;28;20465;-77
2022/11/16 06:36:10;;;;;;;1.60;1.10;;;10.90;98.20;;;;;;4990418;28;20483;-79
2022/11/16 06:38:37;;;;;;;1.60;1.10;;;10.80;98.20;;;;;;4989418;28;20891;-78
2022/11/16 06:41:04;;;;;;;1.60;1.10;;;10.80;98.20;;;;;;4985376;28;20548;-75
2022/11/16 06:43:31;;;;;;;1.60;1.10;;;10.70;98.20;;;;;;5015719;28;20994;-77
2022/11/16 06:45:58;;;;;;;1.60;1.10;;;10.70;98.20;;;;;;5006210;28;20488;-79
2022/11/16 06:48:26;;;;;;;1.60;1.10;;;10.70;98.20;;;;;;5012286;28;21162;-78
2022/11/16 06:50:53;;;;;;;1.60;1.10;;;10.70;98.20;;;;;;5005539;28;20495;-77
2022/11/16 06:53:21;;;;;;;1.60;1.20;;;10.60;98.20;;;;;;4997895;28;20966;-78
2022/11/16 06:55:48;;;;;;;1.63;1.10;;;10.60;98.20;;;;;;4990820;28;20468;-74
2022/11/16 06:58:15;;;;;;;1.60;1.10;;;10.50;98.20;;;;;;5004070;28;20481;-78
2022/11/16 07:00:42;;;;;;;1.60;1.30;;;10.50;98.20;;;;;;5011797;28;20738;-77
2022/11/16 07:03:09;;;;;;;1.60;1.10;;;10.50;98.20;;;;;;4984731;28;20488;-76
2022/11/16 07:05:40;;;;;;;1.60;1.10;;;10.50;98.20;;;;;;4995388;28;20934;-79
2022/11/16 07:08:07;;;;;;;1.60;1.10;;;10.50;98.20;;;;;;4984969;28;20492;-77
2022/11/16 07:10:34;;;;;;;1.60;1.20;;;10.40;98.20;;;;;;5000158;28;20517;-76
2022/11/16 07:13:03;;;;;;;1.63;1.20;;;10.40;98.20;;;;;;4983327;28;20492;-77
2022/11/16 07:15:30;;;;;;;1.60;1.20;;;10.30;98.20;;;;;;5000193;28;20460;-77
2022/11/16 07:17:56;;;;;;;1.60;1.20;;;10.30;98.20;;;;;;4994794;28;20876;-76
2022/11/16 07:20:23;;;;;;;1.60;1.10;;;10.30;98.20;;;;;;5010190;28;20468;-75
2022/11/16 07:22:51;;;;;;;1.60;1.20;;;10.30;98.20;;;;;;4989706;28;20535;-76
2022/11/16 07:25:18;;;;;;;1.60;1.20;;;10.30;98.20;;;;;;5011554;28;20460;-76
2022/11/16 07:27:45;;;;;;;1.60;1.20;;;10.30;98.20;;;;;;4998077;28;20484;-78
2022/11/16 07:30:13;;;;;;;1.60;1.17;;;10.30;98.20;;;;;;4995250;28;20457;-76
2022/11/16 07:32:58;;;;;;;1.60;1.10;;;10.30;98.20;;;;;;4994279;28;20490;-76
2022/11/16 07:36:02;;;;;;;1.60;1.20;;;10.30;98.20;;;;;;5014285;28;20459;-77
2022/11/16 07:47:41;;;;;;;1.67;1.20;;;10.40;98.20;;;;;;4840318;29;20484;-76
2022/11/16 07:50:09;;;;;;;1.63;1.20;;;10.40;98.20;;;;;;4814915;29;20473;-75
2022/11/16 07:52:36;;;;;;;1.60;1.20;;;10.40;98.20;;;;;;4917089;28;20540;-76
2022/11/16 07:55:05;;;;;;;1.60;1.10;;;10.40;98.20;;;;;;4989266;28;20624;-74
2022/11/16 07:57:32;;;;;;;1.60;1.20;;;10.40;98.20;;;;;;4995634;28;20894;-77
2022/11/16 07:59:59;;;;;;;1.70;1.23;;;10.50;98.20;;;;;;5005826;28;20558;-77
2022/11/16 08:02:26;;;;;;;1.60;1.20;;;10.40;98.20;;;;;;5002724;28;20487;-77
2022/11/16 08:04:52;;;;;;;1.60;1.10;;;10.50;98.20;;;;;;5012789;28;20488;-79
2022/11/16 08:07:19;;;;;;;1.60;1.20;;;10.50;98.20;;;;;;5001340;28;20492;-75
2022/11/16 08:09:46;;;;;;;1.63;1.20;;;10.50;98.20;;;;;;5005514;28;20464;-78
2022/11/16 08:12:14;;;;;;;1.60;1.10;;;10.60;98.20;;;;;;4997744;28;20480;-76
2022/11/16 08:14:41;;;;;;;1.63;1.20;;;10.60;98.20;;;;;;5007236;28;20470;-77
2022/11/16 08:17:07;;;;;;;1.60;1.10;;;10.70;98.20;;;;;;4997583;28;20531;-76
2022/11/16 08:19:35;;;;;;;1.60;1.10;;;10.70;98.20;;;;;;5010577;28;20464;-79
2022/11/16 08:22:02;;;;;;;1.60;1.10;;;10.80;98.20;;;;;;4999750;28;20507;-75
2022/11/16 08:24:29;;;;;;;1.60;1.10;;;10.90;98.20;;;;;;5006347;28;20467;-76
2022/11/16 08:26:57;;;;;;;1.60;1.10;;;10.90;98.20;;;;;;4994807;28;20511;-75
2022/11/16 08:29:25;;;;;;;1.63;1.17;;;11.00;98.20;;;;;;5008294;28;20766;-76
2022/11/16 08:31:53;;;;;;;1.70;1.23;;;11.00;98.20;;;;;;4998294;28;20534;-77
2022/11/16 08:34:20;;;;;;;1.60;1.20;;;11.00;98.20;;;;;;5001496;28;20469;-76
2022/11/16 08:36:47;;;;;;;1.60;1.10;;;11.00;98.20;;;;;;4992298;28;20736;-76
2022/11/16 08:39:13;;;;;;;1.60;1.13;;;10.90;98.20;;;;;;5006255;28;20499;-74
2022/11/16 08:41:41;;;;;;;1.60;1.10;;;10.90;98.20;;;;;;4999602;28;20894;-75
2022/11/16 08:44:08;;;;;;;1.60;1.10;;;10.80;98.20;;;;;;5010291;28;20461;-76
2022/11/16 08:46:36;;;;;;;1.60;1.17;;;10.80;98.20;;;;;;5010077;28;20848;-77
2022/11/16 08:49:03;;;;;;;1.60;1.10;;;10.80;98.20;;;;;;5004128;28;20468;-75
2022/11/16 08:51:29;;;;;;;1.60;1.17;;;10.70;98.20;;;;;;5006989;28;20751;-76
2022/11/16 08:53:57;;;;;;;1.60;1.10;;;10.70;98.20;;;;;;5009347;28;20499;-75
2022/11/16 08:56:25;;;;;;;1.60;1.10;;;10.70;98.20;;;;;;4997710;28;20532;-75
2022/11/16 08:58:53;;;;;;;1.60;1.10;;;10.70;98.20;;;;;;5004732;28;21020;-76
2022/11/16 09:01:22;;;;;;;1.60;1.10;;;10.70;98.20;;;;;;4987866;28;20485;-74
2022/11/16 09:03:51;;;;;;;1.60;1.10;;;10.80;98.20;;;;;;5001134;28;20515;-75
2022/11/16 09:06:19;;;;;;;1.60;1.10;;;10.90;98.20;;;;;;4992334;28;20472;-75
2022/11/16 09:08:47;;;;;;;1.60;1.10;;;11.10;98.20;;;;;;5006702;28;20472;-76
2022/11/16 09:11:15;;;;;;;1.60;1.10;;;11.20;98.20;;;;;;4994899;28;20611;-78
2022/11/16 09:13:42;;;;;;;1.60;1.10;;;11.40;98.20;;;;;;5006867;28;20463;-73
2022/11/16 09:16:09;;;;;;;1.60;1.10;;;11.50;98.20;;;;;;4996003;28;20490;-76
2022/11/16 09:18:37;;;;;;;1.60;1.10;;;11.50;98.20;;;;;;5007473;28;20492;-76
2022/11/16 09:21:05;;;;;;;1.60;1.10;;;11.50;98.20;;;;;;4998570;28;20468;-75
2022/11/16 09:23:32;;;;;;;1.60;1.10;;;11.50;98.20;;;;;;5006552;28;20958;-75
2022/11/16 09:26:02;;;;;;;1.60;1.10;;;11.50;98.20;;;;;;4995068;28;20479;-77
2022/11/16 09:28:29;;;;;;;1.60;1.00;;;11.40;98.20;;;;;;4985949;28;20941;-75
2022/11/16 09:31:00;;;;;;;1.60;1.00;;;11.30;98.20;;;;;;4978220;28;21037;-73
2022/11/16 09:33:28;;;;;;;1.60;1.10;;;11.20;98.20;;;;;;4992430;28;20679;-76
2022/11/16 09:35:55;;;;;;;1.60;1.00;;;11.20;98.20;;;;;;4999180;28;20468;-75
2022/11/16 09:38:23;;;;;;;1.60;1.10;;;11.20;98.20;;;;;;4968251;28;20525;-77
2022/11/16 09:40:50;;;;;;;1.60;1.10;;;11.20;98.20;;;;;;4979163;28;20551;-75
2022/11/16 09:43:29;;;;;;;1.60;1.10;;;11.10;98.20;;;;;;4971783;28;21045;-77
2022/11/16 09:46:04;;;;;;;1.60;1.10;;;11.20;98.20;;;;;;4979026;28;20500;-76
2022/11/16 09:48:35;;;;;;;1.60;1.10;;;11.30;98.20;;;;;;4989090;28;20500;-73
2022/11/16 09:51:07;;;;;;;1.60;1.10;;;11.40;98.20;;;;;;4976829;28;20472;-77
2022/11/16 09:53:40;;;;;;;1.60;1.00;;;11.40;98.20;;;;;;4987251;28;20961;-74
2022/11/16 09:56:11;;;;;;;1.57;1.00;;;11.60;98.20;;;;;;4981241;28;20477;-77
2022/11/16 09:58:42;;;;;;;1.60;1.10;;;11.70;98.20;;;;;;5005019;28;20481;-75
2022/11/16 10:01:20;;;;;;;1.60;1.10;;;11.80;98.20;;;;;;4995090;28;21009;-77
2022/11/16 10:03:50;;;;;;;1.60;1.10;;;12.00;98.20;;;;;;4986305;28;20955;-76
2022/11/16 10:06:21;;;;;;;1.60;1.10;;;12.30;98.20;;;;;;4979745;28;20562;-75
2022/11/16 10:08:51;;;;;;;1.60;1.03;;;12.40;98.20;;;;;;5007674;28;20495;-78
2022/11/16 10:11:52;;;;;;;1.60;1.03;;;12.60;98.20;;;;;;4996151;28;20620;-75
2022/11/16 10:14:39;;;;;;;1.60;1.10;;;12.80;98.20;;;;;;4991866;28;20859;-76
2022/11/16 10:17:13;;;;;;;1.60;1.00;;;12.90;98.20;;;;;;4992943;28;20483;-77
2022/11/16 10:19:50;;;;;;;1.60;1.00;;;12.90;98.20;;;;;;5008288;28;20468;-74
2022/11/16 10:22:33;;;;;;;1.60;1.00;;;13.00;98.20;;;;;;4997725;28;20545;-74
2022/11/16 10:25:07;;;;;;;1.60;1.10;;;13.10;98.20;;;;;;5005395;28;20472;-76
2022/11/16 10:27:46;;;;;;;1.60;1.00;;;13.10;98.20;;;;;;4990533;28;20495;-78
2022/11/16 10:30:15;;;;;;;1.60;1.00;;;13.20;98.20;;;;;;5002852;28;20471;-75
2022/11/16 10:32:48;;;;;;;1.60;1.00;;;13.30;98.20;;;;;;4995848;28;20524;-76
2022/11/16 10:35:25;;;;;;;1.60;1.00;;;13.20;98.20;;;;;;5005932;28;21038;-75
2022/11/16 10:37:52;;;;;;;1.60;1.00;;;13.10;98.20;;;;;;4992259;28;20484;-75
2022/11/16 10:40:23;;;;;;;1.60;1.00;;;13.10;98.20;;;;;;5004104;28;20468;-75
2022/11/16 10:43:03;;;;;;;1.60;1.00;;;13.10;98.20;;;;;;4992874;28;20562;-75
2022/11/16 10:45:37;;;;;;;1.57;1.00;;;13.00;98.20;;;;;;5008496;28;20968;-76
2022/11/16 10:48:14;;;;;;;1.57;1.00;;;13.00;98.20;;;;;;4994997;28;20510;-76
2022/11/16 10:50:44;;;;;;;1.60;1.00;;;13.10;98.20;;;;;;5006339;28;20464;-75
2022/11/16 10:53:14;;;;;;;1.53;1.00;;;13.10;98.20;;;;;;4993214;28;20491;-75
2022/11/16 10:55:42;;;;;;;1.53;1.00;;;13.30;98.20;;;;;;5007666;28;20468;-75
2022/11/16 10:58:09;;;;;;;1.60;1.00;;;13.30;98.20;;;;;;4991189;28;20499;-74
2022/11/16 11:00:39;;;;;;;1.60;1.00;;;13.40;98.20;;;;;;4996398;28;20965;-75
2022/11/16 11:03:08;;;;;;;1.53;1.00;;;13.60;98.20;;;;;;4993684;28;20487;-76
2022/11/16 11:05:35;;;;;;;1.60;1.10;;;13.80;98.20;;;;;;5001340;28;20837;-75
2022/11/16 11:08:03;;;;;;;1.60;1.00;;;13.90;98.20;;;;;;4994158;28;20487;-75
2022/11/16 11:10:32;;;;;;;1.53;1.00;;;13.90;98.20;;;;;;5004631;28;20474;-74
2022/11/16 11:13:21;;;;;;;1.57;1.00;;;13.90;98.20;;;;;;4994542;28;20492;-77
2022/11/16 11:15:50;;;;;;;1.60;1.10;;;14.00;98.20;;;;;;4996740;28;20475;-75
2022/11/16 11:18:24;;;;;;;1.53;1.00;;;14.10;98.20;;;;;;5002004;28;20496;-75
2022/11/16 11:21:04;;;;;;;1.57;1.00;;;14.00;98.20;;;;;;4997104;28;20467;-75
2022/11/16 11:23:37;;;;;;;1.60;1.00;;;14.00;98.20;;;;;;5003997;28;20464;-74
2022/11/16 11:26:06;;;;;;;1.60;1.00;;;14.00;98.20;;;;;;4997587;28;20456;-74
2022/11/16 11:28:38;;;;;;;1.60;1.00;;;13.90;98.20;;;;;;5006306;28;20582;-75
2022/11/16 11:31:09;;;;;;;1.57;1.00;;;13.90;98.20;;;;;;4995312;28;20463;-74
2022/11/16 11:33:39;;;;;;;1.60;1.10;;;13.90;98.20;;;;;;5009155;28;20995;-75
2022/11/16 11:36:11;;;;;;;1.60;1.00;;;13.90;98.20;;;;;;4997478;28;20953;-74
2022/11/16 11:38:56;;;;;;;1.60;1.13;;;13.90;98.20;;;;;;5007990;28;20572;-75
2022/11/16 11:41:23;;;;;;;1.57;1.00;;;13.90;98.20;;;;;;4992108;28;20475;-76
2022/11/16 11:44:02;;;;;;;1.53;1.00;;;13.90;98.20;;;;;;5009477;28;20463;-74
2022/11/16 11:46:30;;;;;;;1.60;1.00;;;13.80;98.20;;;;;;4998970;28;20609;-74
2022/11/16 11:49:03;;;;;;;1.60;1.10;;;13.70;98.20;;;;;;5009003;28;20496;-75
2022/11/16 11:51:34;;;;;;;1.60;1.20;;;13.70;98.20;;;;;;4996121;28;20639;-75
2022/11/16 11:54:04;;;;;;;1.60;1.10;;;13.70;98.20;;;;;;5006230;28;20557;-76
2022/11/16 11:56:33;;;;;;;1.53;0.93;;;13.70;98.20;;;;;;4990477;28;20781;-75
2022/11/16 11:59:04;;;;;;;1.57;1.00;;;13.80;98.20;;;;;;5005639;28;20486;-76
2022/11/16 12:01:56;;;;;;;1.60;1.00;;;13.80;98.20;;;;;;4996065;28;20512;-75
2022/11/16 12:04:57;;;;;;;1.53;0.90;;;13.80;98.20;;;;;;5009937;28;20461;-74
2022/11/16 12:07:39;;;;;;;1.53;1.00;;;13.90;98.20;;;;;;4994972;28;20479;-73
2022/11/16 12:10:17;;;;;;;1.57;1.00;;;13.80;98.20;;;;;;5010640;28;20487;-76
2022/11/16 12:12:55;;;;;;;1.50;0.93;;;13.80;98.20;;;;;;4997199;28;20484;-73
2022/11/16 12:15:48;;;;;;;1.60;1.00;;;13.80;98.20;;;;;;5009924;28;20467;-73
2022/11/16 12:18:32;;;;;;;1.60;1.00;;;13.70;98.20;;;;;;4978529;28;20480;-74
2022/11/16 12:21:09;;;;;;;1.60;1.10;;;13.70;98.20;;;;;;4994068;28;20558;-74
2022/11/16 12:24:08;;;;;;;1.53;1.00;;;13.70;98.20;;;;;;5007579;28;20464;-75
2022/11/16 12:26:47;;;;;;;1.57;1.00;;;13.70;98.20;;;;;;4996879;28;20901;-75
2022/11/16 12:29:25;;;;;;;1.57;1.00;;;13.80;98.20;;;;;;5005242;28;20993;-76
2022/11/16 12:32:20;;;;;;;1.60;1.10;;;13.90;98.20;;;;;;4990342;28;20484;-74
2022/11/16 12:35:10;;;;;;;1.53;1.00;;;14.10;98.20;;;;;;5003007;28;20464;-74
2022/11/16 12:37:43;;;;;;;1.60;1.10;;;14.30;98.20;;;;;;4987937;28;20488;-76
2022/11/16 12:40:33;;;;;;;1.57;0.93;;;14.50;98.20;;;;;;5001328;28;20475;-76
2022/11/16 12:43:09;;;;;;;1.60;1.00;;;14.70;98.20;;;;;;4993166;28;20487;-73
2022/11/16 12:45:50;;;;;;;1.53;0.93;;;14.90;98.20;;;;;;5001829;28;20956;-76
2022/11/16 12:48:49;;;;;;;1.57;1.00;;;15.10;98.20;;;;;;4972374;28;20476;-76
2022/11/16 12:51:29;;;;;;;1.57;1.00;;;15.20;98.20;;;;;;4988528;28;20472;-75
2022/11/16 12:54:23;;;;;;;1.57;1.00;;;15.20;98.20;;;;;;5001363;28;20552;-74
2022/11/16 12:56:58;;;;;;;1.53;0.90;;;15.30;98.20;;;;;;4993798;28;21053;-75
2022/11/16 12:59:44;;;;;;;1.50;1.00;;;15.30;98.20;;;;;;5003706;28;20546;-75
2022/11/16 13:02:22;;;;;;;1.57;1.00;;;15.40;97.70;;;;;;4996028;28;20496;-76
2022/11/16 13:04:56;;;;;;;1.57;1.00;;;15.30;98.20;;;;;;5003256;28;20909;-75
2022/11/16 13:07:28;;;;;;;1.60;1.00;;;15.30;98.20;;;;;;4994005;28;20559;-75
2022/11/16 13:10:01;;;;;;;1.60;1.10;;;15.30;98.20;;;;;;5004640;28;20467;-73
2022/11/16 13:12:30;;;;;;;1.57;1.00;;;15.20;97.70;;;;;;4994788;28;20475;-74
2022/11/16 13:14:59;;;;;;;1.57;1.00;;;15.20;98.20;;;;;;5005839;28;20946;-73
2022/11/16 13:17:29;;;;;;;1.50;1.00;;;15.20;98.20;;;;;;4993783;28;20496;-74
2022/11/16 13:20:16;;;;;;;1.57;1.00;;;15.20;98.20;;;;;;5002661;28;20935;-73
2022/11/16 13:22:50;;;;;;;1.57;0.97;;;15.10;98.20;;;;;;4988576;28;20656;-73
2022/11/16 13:25:24;;;;;;;1.53;0.97;;;15.00;98.20;;;;;;5003102;28;20461;-74
2022/11/16 13:27:55;;;;;;;1.53;1.00;;;14.90;98.20;;;;;;4990114;28;20555;-74
2022/11/16 13:30:24;;;;;;;1.50;1.00;;;14.80;98.20;;;;;;5004720;28;20471;-76
2022/11/16 13:33:13;;;;;;;1.60;1.00;;;14.80;98.20;;;;;;4990280;28;20480;-75
2022/11/16 13:35:41;;;;;;;1.60;1.00;;;14.80;98.20;;;;;;5007232;28;20518;-74
2022/11/16 13:38:12;;;;;;;1.57;1.00;;;14.80;98.20;;;;;;4994042;28;20523;-75
2022/11/16 13:40:40;;;;;;;1.57;1.00;;;14.80;98.20;;;;;;5005649;28;20510;-76
2022/11/16 13:43:18;;;;;;;1.50;1.00;;;14.80;98.20;;;;;;4994579;28;20604;-79
2022/11/16 13:45:55;;;;;;;1.50;0.90;;;14.80;98.20;;;;;;5006499;28;20456;-75
2022/11/16 13:48:25;;;;;;;1.57;1.00;;;14.80;98.20;;;;;;4978649;28;20899;-76
2022/11/16 13:50:56;;;;;;;1.50;0.90;;;14.70;98.20;;;;;;4997177;28;20472;-76
2022/11/16 13:53:27;;;;;;;1.53;0.93;;;14.60;98.20;;;;;;5001131;28;20471;-75
2022/11/16 13:55:56;;;;;;;1.57;1.00;;;14.60;98.20;;;;;;4994306;28;20842;-75